createdAt,value
2023-02-11T00:02:07.591Z,5.83
2023-02-11T00:04:34.886Z,5.83
2023-02-11T00:07:02.997Z,5.81
2023-02-11T00:09:32.034Z,5.81
2023-02-11T00:12:02.612Z,5.84
2023-02-11T00:14:30.136Z,5.83
2023-02-11T00:17:01.530Z,5.83
2023-02-11T00:19:32.649Z,5.83
2023-02-11T00:22:00.188Z,5.81
2023-02-11T00:24:27.558Z,5.82
2023-02-11T00:26:54.843Z,5.80
2023-02-11T00:29:25.846Z,5.81
2023-02-11T00:31:53.221Z,5.80
2023-02-11T00:34:20.527Z,5.82
2023-02-11T00:36:53.290Z,5.82
2023-02-11T00:39:20.694Z,5.81
2023-02-11T00:41:49.565Z,5.81
2023-02-11T00:44:21.149Z,5.81
2023-02-11T00:46:54.568Z,5.80
2023-02-11T00:49:22.240Z,5.80
2023-02-11T00:51:49.642Z,5.78
2023-02-11T00:54:16.994Z,5.76
2023-02-11T00:56:46.527Z,5.79
2023-02-11T00:59:14.123Z,5.80
2023-02-11T01:01:46.423Z,5.80
2023-02-11T01:04:13.783Z,5.79
2023-02-11T01:06:42.078Z,5.80
2023-02-11T01:09:14.571Z,5.78
2023-02-11T01:11:43.128Z,5.77
2023-02-11T01:14:12.480Z,5.79
2023-02-11T01:16:40.793Z,5.79
2023-02-11T01:19:09.744Z,5.79
2023-02-11T01:21:47.600Z,5.81
2023-02-11T01:24:15.004Z,5.81
2023-02-11T01:26:46.033Z,5.83
2023-02-11T01:29:14.350Z,5.83
2023-02-11T01:31:41.687Z,5.83
2023-02-11T01:34:09.497Z,5.84
2023-02-11T01:36:39.295Z,5.83
2023-02-11T01:39:08.621Z,5.83
2023-02-11T01:41:37.198Z,5.80
2023-02-11T01:44:35.577Z,5.82
2023-02-11T01:47:06.910Z,5.79
2023-02-11T01:49:44.417Z,5.78
2023-02-11T01:52:38.052Z,5.75
2023-02-11T01:55:32.854Z,5.71
2023-02-11T01:58:05.538Z,5.69
2023-02-11T02:00:39.570Z,5.68
2023-02-11T02:03:20.797Z,5.64
2023-02-11T02:06:20.608Z,5.65
2023-02-11T02:09:10.867Z,5.64
2023-02-11T02:11:39.428Z,5.63
2023-02-11T02:14:25.617Z,5.61
2023-02-11T02:16:53.666Z,5.64
2023-02-11T02:20:19.277Z,5.65
2023-02-11T02:23:04.485Z,5.65
2023-02-11T02:26:28.635Z,5.65
2023-02-11T02:29:58.036Z,5.65
2023-02-11T02:32:50.633Z,5.65
2023-02-11T02:35:45.272Z,5.64
2023-02-11T02:38:38.237Z,5.63
2023-02-11T02:41:20.066Z,5.61
2023-02-11T02:43:52.874Z,5.60
2023-02-11T02:46:31.925Z,5.61
2023-02-11T02:49:07.272Z,5.56
2023-02-11T02:52:27.870Z,5.52
2023-02-11T02:55:27.876Z,5.50
2023-02-11T02:58:32.962Z,5.50
2023-02-11T03:01:40.051Z,5.48
2023-02-11T03:04:29.599Z,5.48
2023-02-11T03:07:47.321Z,5.47
2023-02-11T03:10:28.940Z,5.48
2023-02-11T03:13:03.900Z,5.45
2023-02-11T03:15:46.738Z,5.44
2023-02-11T03:18:22.368Z,5.41
2023-02-11T03:20:54.872Z,5.41
2023-02-11T03:23:47.625Z,5.39
2023-02-11T03:26:43.657Z,5.39
2023-02-11T03:29:15.346Z,5.38
2023-02-11T03:32:17.150Z,5.37
2023-02-11T03:35:00.222Z,5.35
2023-02-11T03:37:45.264Z,5.37
2023-02-11T03:40:32.320Z,5.37
2023-02-11T03:43:19.065Z,5.36
2023-02-11T03:45:53.845Z,5.36
2023-02-11T03:48:41.100Z,5.35
2023-02-11T03:51:12.948Z,5.33
2023-02-11T03:53:46.135Z,5.32
2023-02-11T03:56:28.545Z,5.30
2023-02-11T03:58:55.947Z,5.28
2023-02-11T04:01:24.557Z,5.24
2023-02-11T04:03:53.405Z,5.27
2023-02-11T04:06:27.263Z,5.26
2023-02-11T04:08:59.729Z,5.29
2023-02-11T04:11:29.409Z,5.28
2023-02-11T04:13:59.481Z,5.29
2023-02-11T04:16:32.885Z,5.28
2023-02-11T04:19:04.076Z,5.25
2023-02-11T04:21:34.898Z,5.25
2023-02-11T04:24:04.282Z,5.23
2023-02-11T04:26:39.759Z,5.25
2023-02-11T04:29:07.506Z,5.24
2023-02-11T04:31:40.288Z,5.26
2023-02-11T04:34:10.334Z,5.26
2023-02-11T04:36:40.846Z,5.26
2023-02-11T04:39:10.329Z,5.28
2023-02-11T04:41:39.599Z,5.28
2023-02-11T04:44:12.518Z,5.30
2023-02-11T04:46:41.026Z,5.32
2023-02-11T04:49:17.056Z,5.34
2023-02-11T04:51:49.515Z,5.34
2023-02-11T04:54:18.074Z,5.36
2023-02-11T04:56:52.824Z,5.38
2023-02-11T04:59:20.199Z,5.39
2023-02-11T05:01:47.664Z,5.41
2023-02-11T05:04:15.209Z,5.41
2023-02-11T05:06:43.380Z,5.41
2023-02-11T05:09:14.285Z,5.42
2023-02-11T05:11:43.172Z,5.40
2023-02-11T05:14:12.203Z,5.42
2023-02-11T05:16:46.672Z,5.44
2023-02-11T05:19:15.731Z,5.44
2023-02-11T05:22:01.444Z,5.43
2023-02-11T05:24:33.187Z,5.44
2023-02-11T05:27:03.785Z,5.44
2023-02-11T05:29:33.165Z,5.45
2023-02-11T05:32:00.854Z,5.45
2023-02-11T05:34:28.903Z,5.46
2023-02-11T05:36:57.092Z,5.46
2023-02-11T05:39:27.329Z,5.49
2023-02-11T05:41:55.472Z,5.50
2023-02-11T05:44:28.135Z,5.52
2023-02-11T05:47:01.550Z,5.52
2023-02-11T05:49:29.026Z,5.51
2023-02-11T05:52:01.224Z,5.53
2023-02-11T05:54:45.490Z,5.53
2023-02-11T05:57:13.857Z,5.55
2023-02-11T05:59:41.711Z,5.56
2023-02-11T06:02:13.322Z,5.53
2023-02-11T06:04:49.725Z,5.55
2023-02-11T06:07:17.728Z,5.56
2023-02-11T06:09:46.075Z,5.56
2023-02-11T06:12:13.430Z,5.54
2023-02-11T06:14:41.450Z,5.57
2023-02-11T06:17:09.972Z,5.61
2023-02-11T06:19:46.016Z,5.60
2023-02-11T06:22:20.227Z,5.62
2023-02-11T06:25:01.369Z,5.61
2023-02-11T06:27:36.248Z,5.62
2023-02-11T06:30:06.931Z,5.62
2023-02-11T06:32:44.046Z,5.63
2023-02-11T06:35:14.948Z,5.65
2023-02-11T06:37:43.855Z,5.63
2023-02-11T06:40:14.690Z,5.63
2023-02-11T06:42:46.721Z,5.65
2023-02-11T06:45:15.381Z,5.64
2023-02-11T06:47:42.988Z,5.68
2023-02-11T06:50:15.224Z,5.66
2023-02-11T06:52:46.139Z,5.66
2023-02-11T06:55:14.230Z,5.69
2023-02-11T06:57:45.273Z,5.66
2023-02-11T07:00:13.966Z,5.70
2023-02-11T07:02:42.887Z,5.70
2023-02-11T07:05:10.794Z,5.71
2023-02-11T07:07:38.999Z,5.70
2023-02-11T07:10:09.542Z,5.70
2023-02-11T07:12:44.187Z,5.73
2023-02-11T07:15:12.296Z,5.72
2023-02-11T07:17:40.254Z,5.75
2023-02-11T07:20:12.511Z,5.73
2023-02-11T07:22:41.584Z,5.79
2023-02-11T07:25:12.244Z,5.77
2023-02-11T07:27:48.210Z,5.81
2023-02-11T07:30:20.517Z,5.81
2023-02-11T07:32:50.035Z,5.85
2023-02-11T07:35:19.596Z,5.85
2023-02-11T07:37:55.024Z,5.87
2023-02-11T07:40:26.401Z,5.88
2023-02-11T07:42:58.673Z,5.89
2023-02-11T07:45:26.436Z,5.89
2023-02-11T07:47:55.598Z,5.90
2023-02-11T07:50:25.517Z,5.90
2023-02-11T07:52:53.027Z,5.93
2023-02-11T07:55:24.065Z,5.93
2023-02-11T07:57:55.384Z,5.97
2023-02-11T08:00:22.855Z,5.98
2023-02-11T08:02:50.164Z,5.99
2023-02-11T08:05:19.683Z,6.01
2023-02-11T08:07:59.345Z,6.01
2023-02-11T08:10:37.668Z,6.03
2023-02-11T08:13:09.878Z,6.06
2023-02-11T08:15:45.322Z,6.06
2023-02-11T08:18:44.293Z,6.06
2023-02-11T08:21:17.709Z,6.08
2023-02-11T08:24:06.949Z,6.09
2023-02-11T08:26:38.526Z,6.10
2023-02-11T08:29:27.632Z,6.11
2023-02-11T08:32:02.102Z,6.14
2023-02-11T08:34:42.378Z,6.16
2023-02-11T08:37:12.651Z,6.18
2023-02-11T08:39:42.301Z,6.21
2023-02-11T08:42:15.376Z,6.26
2023-02-11T08:44:44.307Z,6.27
2023-02-11T08:47:17.587Z,6.28
2023-02-11T08:49:46.505Z,6.33
2023-02-11T08:52:15.467Z,6.35
2023-02-11T08:54:43.190Z,6.38
2023-02-11T08:57:15.306Z,6.42
2023-02-11T08:59:45.046Z,6.45
2023-02-11T09:02:15.529Z,6.49
2023-02-11T09:04:44.351Z,6.52
2023-02-11T09:07:14.273Z,6.53
2023-02-11T09:09:48.827Z,6.56
2023-02-11T09:12:17.320Z,6.58
2023-02-11T09:14:45.598Z,6.61
2023-02-11T09:17:14.910Z,6.63
2023-02-11T09:19:47.902Z,6.67
2023-02-11T09:22:15.335Z,6.68
2023-02-11T09:24:43.241Z,6.72
2023-02-11T09:27:12.307Z,6.75
2023-02-11T09:29:43.495Z,6.77
2023-02-11T09:32:11.662Z,6.77
2023-02-11T09:34:42.512Z,6.80
2023-02-11T09:37:19.945Z,6.80
2023-02-11T09:39:49.230Z,6.81
2023-02-11T09:43:12.231Z,6.87
2023-02-11T09:45:43.429Z,6.87
2023-02-11T09:51:26.604Z,6.95
2023-02-11T09:54:09.711Z,7.01
2023-02-11T09:59:54.598Z,7.05
2023-02-11T10:03:24.538Z,7.09
2023-02-11T10:07:00.295Z,7.12
2023-02-11T10:10:34.722Z,7.15
2023-02-11T10:13:57.457Z,7.16
2023-02-11T10:17:39.259Z,7.20
2023-02-11T10:21:14.736Z,7.23
2023-02-11T10:24:01.746Z,7.23
2023-02-11T10:27:02.434Z,7.25
2023-02-11T10:30:08.968Z,7.27
2023-02-11T10:33:34.617Z,7.25
2023-02-11T10:36:07.895Z,7.27
2023-02-11T10:38:46.514Z,7.27
2023-02-11T10:41:40.503Z,7.29
2023-02-11T10:44:42.187Z,7.30
2023-02-11T10:47:37.602Z,7.32
2023-02-11T10:50:44.107Z,7.33
2023-02-11T10:53:26.073Z,7.34
2023-02-11T10:56:00.028Z,7.36
2023-02-11T10:59:03.684Z,7.37
2023-02-11T11:02:11.240Z,7.41
2023-02-11T11:07:46.515Z,7.44
2023-02-11T11:14:04.503Z,7.53
2023-02-11T11:16:56.040Z,7.59
2023-02-11T11:19:28.774Z,7.64
2023-02-11T11:22:09.403Z,7.67
2023-02-11T11:25:05.760Z,7.72
2023-02-11T11:27:57.231Z,7.75
2023-02-11T11:31:07.805Z,7.81
2023-02-11T11:33:41.954Z,7.81
2023-02-11T11:36:18.061Z,7.81
2023-02-11T11:39:34.004Z,7.86
2023-02-11T11:42:37.291Z,7.90
2023-02-11T11:45:36.962Z,7.94
2023-02-11T11:48:40.287Z,7.98
2023-02-11T11:51:20.862Z,8.05
2023-02-11T11:54:16.984Z,8.11
2023-02-11T11:57:26.405Z,8.23
2023-02-11T12:00:40.693Z,8.36
2023-02-11T12:04:39.985Z,8.51
2023-02-11T12:08:27.316Z,8.55
2023-02-11T12:11:54.103Z,8.59
2023-02-11T12:19:29.266Z,8.68
2023-02-11T12:23:11.581Z,8.77
2023-02-11T12:26:24.274Z,8.87
2023-02-11T12:30:04.907Z,8.93
2023-02-11T12:33:10.147Z,8.97
2023-02-11T12:36:27.013Z,9.07
2023-02-11T12:40:30.983Z,9.28
2023-02-11T12:43:23.468Z,9.44
2023-02-11T12:46:40.846Z,9.64
2023-02-11T12:50:14.404Z,9.85
2023-02-11T12:53:26.195Z,10.11
2023-02-11T12:56:29.383Z,10.20
2023-02-11T12:59:20.271Z,10.14
2023-02-11T13:01:59.951Z,10.07
2023-02-11T13:04:52.506Z,10.04
2023-02-11T13:07:46.728Z,10.01
2023-02-11T13:10:44.706Z,9.97
2023-02-11T13:13:34.029Z,9.88
2023-02-11T13:16:34.571Z,9.91
2023-02-11T13:19:13.819Z,10.14
2023-02-11T13:22:19.798Z,10.35
2023-02-11T13:25:33.875Z,10.55
2023-02-11T13:28:34.822Z,10.59
2023-02-11T13:31:08.518Z,10.56
2023-02-11T13:33:46.163Z,10.56
2023-02-11T13:36:27.221Z,10.53
2023-02-11T13:39:21.150Z,10.49
2023-02-11T13:42:05.806Z,10.47
2023-02-11T13:44:37.721Z,10.51
2023-02-11T13:47:37.761Z,10.51
2023-02-11T13:53:09.904Z,10.44
2023-02-11T13:55:39.114Z,10.47
2023-02-11T13:58:06.263Z,10.42
2023-02-11T14:00:54.972Z,10.31
2023-02-11T14:03:57.591Z,10.21
2023-02-11T14:07:08.418Z,10.11
2023-02-11T14:09:43.769Z,10.04
2023-02-11T14:13:17.876Z,10.01
2023-02-11T14:16:10.393Z,9.98
2023-02-11T14:19:09.035Z,9.95
2023-02-11T14:21:51.458Z,9.93
2023-02-11T14:25:13.508Z,9.91
2023-02-11T14:27:58.090Z,9.92
2023-02-11T14:30:56.061Z,9.93
2023-02-11T14:34:14.700Z,9.95
2023-02-11T14:38:10.909Z,9.93
2023-02-11T14:41:30.758Z,9.87
2023-02-11T14:44:17.770Z,9.87
2023-02-11T14:47:10.517Z,9.83
2023-02-11T14:49:41.950Z,9.81
2023-02-11T14:52:35.959Z,9.79
2023-02-11T14:55:48.585Z,9.77
2023-02-11T14:58:32.762Z,9.71
2023-02-11T15:01:47.098Z,9.68
2023-02-11T15:04:45.024Z,9.65
2023-02-11T15:07:15.563Z,9.63
2023-02-11T15:09:55.117Z,9.62
2023-02-11T15:12:31.771Z,9.61
2023-02-11T15:15:03.459Z,9.61
2023-02-11T15:17:43.086Z,9.57
2023-02-11T15:20:32.188Z,9.56
2023-02-11T15:23:34.269Z,9.54
2023-02-11T15:26:23.950Z,9.55
2023-02-11T15:29:25.116Z,9.53
2023-02-11T15:32:38.207Z,9.50
2023-02-11T15:35:20.824Z,9.46
2023-02-11T15:37:56.786Z,9.40
2023-02-11T15:40:42.193Z,9.35
2023-02-11T15:46:48.470Z,9.30
2023-02-11T15:49:19.377Z,9.29
2023-02-11T15:51:57.413Z,9.27
2023-02-11T15:54:39.564Z,9.24
2023-02-11T15:57:14.228Z,9.24
2023-02-11T15:59:54.547Z,9.22
2023-02-11T16:02:36.716Z,9.21
2023-02-11T16:05:10.639Z,9.17
2023-02-11T16:07:51.587Z,9.14
2023-02-11T16:10:38.131Z,9.10
2023-02-11T16:13:08.419Z,9.05
2023-02-11T16:16:05.538Z,9.02
2023-02-11T16:19:03.362Z,9.00
2023-02-11T16:21:42.986Z,8.95
2023-02-11T16:24:39.491Z,8.94
2023-02-11T16:27:30.535Z,8.92
2023-02-11T16:30:02.137Z,8.88
2023-02-11T16:32:31.493Z,8.87
2023-02-11T16:35:02.181Z,8.86
2023-02-11T16:37:33.010Z,8.84
2023-02-11T16:40:01.639Z,8.82
2023-02-11T16:42:30.899Z,8.80
2023-02-11T16:45:03.123Z,8.78
2023-02-11T16:47:40.959Z,8.75
2023-02-11T16:50:32.655Z,8.73
2023-02-11T16:53:09.732Z,8.71
2023-02-11T16:55:41.066Z,8.68
2023-02-11T16:58:14.776Z,8.66
2023-02-11T17:00:52.064Z,8.65
2023-02-11T17:03:30.046Z,8.60
2023-02-11T17:06:03.168Z,8.60
2023-02-11T17:08:30.885Z,8.57
2023-02-11T17:10:58.593Z,8.51
2023-02-11T17:13:25.940Z,8.51
2023-02-11T17:15:55.363Z,8.50
2023-02-11T17:18:28.219Z,8.48
2023-02-11T17:21:04.936Z,8.46
2023-02-11T17:23:33.352Z,8.46
2023-02-11T17:26:05.366Z,8.45
2023-02-11T17:28:44.445Z,8.44
2023-02-11T17:31:22.589Z,8.43
2023-02-11T17:33:55.485Z,8.41
2023-02-11T17:36:49.187Z,8.37
2023-02-11T17:39:22.740Z,8.36
2023-02-11T17:41:57.246Z,8.34
2023-02-11T17:44:25.913Z,8.35
2023-02-11T17:46:56.905Z,8.35
2023-02-11T17:49:25.008Z,8.35
2023-02-11T17:51:55.613Z,8.36
2023-02-11T17:54:24.826Z,8.36
2023-02-11T17:56:57.773Z,8.34
2023-02-11T17:59:35.591Z,8.32
2023-02-11T18:02:18.837Z,8.32
2023-02-11T18:04:47.992Z,8.31
2023-02-11T18:07:20.248Z,8.30
2023-02-11T18:09:57.628Z,8.28
2023-02-11T18:12:30.137Z,8.28
2023-02-11T18:15:17.005Z,8.28
2023-02-11T18:17:45.665Z,8.26
2023-02-11T18:20:16.862Z,8.24
2023-02-11T18:22:48.314Z,8.23
2023-02-11T18:25:27.841Z,8.21
2023-02-11T18:27:57.049Z,8.21
2023-02-11T18:30:49.200Z,8.20
2023-02-11T18:33:17.726Z,8.19
2023-02-11T18:35:50.842Z,8.18
2023-02-11T18:38:20.088Z,8.17
2023-02-11T18:40:49.759Z,8.17
2023-02-11T18:43:28.917Z,8.17
2023-02-11T18:45:58.596Z,8.15
2023-02-11T18:48:30.699Z,8.14
2023-02-11T18:54:17.813Z,8.12
2023-02-11T18:56:52.752Z,8.11
2023-02-11T18:59:26.589Z,8.11
2023-02-11T19:01:54.049Z,8.09
2023-02-11T19:04:32.344Z,8.08
2023-02-11T19:09:45.984Z,8.06
2023-02-11T19:12:13.724Z,8.06
2023-02-11T19:14:56.233Z,8.08
2023-02-11T19:17:34.719Z,8.10
2023-02-11T19:20:10.520Z,8.08
2023-02-11T19:22:41.217Z,8.08
2023-02-11T19:25:11.291Z,8.08
2023-02-11T19:27:43.878Z,8.06
2023-02-11T19:30:16.877Z,8.08
2023-02-11T19:32:50.690Z,8.07
2023-02-11T19:35:33.398Z,8.09
2023-02-11T19:38:06.384Z,8.10
2023-02-11T19:40:37.082Z,8.10
2023-02-11T19:43:08.357Z,8.07
2023-02-11T19:45:39.696Z,8.08
2023-02-11T19:48:07.252Z,8.07
2023-02-11T19:50:36.088Z,8.06
2023-02-11T19:53:08.933Z,8.04
2023-02-11T19:55:42.901Z,8.03
2023-02-11T19:58:11.057Z,8.05
2023-02-11T20:00:42.392Z,8.04
2023-02-11T20:03:11.426Z,8.03
2023-02-11T20:05:43.442Z,8.02
2023-02-11T20:08:11.405Z,8.03
2023-02-11T20:10:41.724Z,8.01
2023-02-11T20:15:57.583Z,8.02
2023-02-11T20:18:25.388Z,8.03
2023-02-11T20:20:54.245Z,8.05
2023-02-11T20:23:22.699Z,8.06
2023-02-11T20:26:02.193Z,8.04
2023-02-11T20:28:31.542Z,8.01
2023-02-11T20:31:11.141Z,7.98
2023-02-11T20:33:50.081Z,7.99
2023-02-11T20:36:31.345Z,8.01
2023-02-11T20:39:04.836Z,7.99
2023-02-11T20:41:45.246Z,8.00
2023-02-11T20:44:16.980Z,7.99
2023-02-11T20:46:48.988Z,7.99
2023-02-11T20:49:29.561Z,7.98
2023-02-11T20:55:01.702Z,7.96
2023-02-11T20:57:39.795Z,7.95
2023-02-11T21:00:20.730Z,7.93
2023-02-11T21:02:55.185Z,7.91
2023-02-11T21:05:40.698Z,7.89
2023-02-11T21:08:09.586Z,7.90
2023-02-11T21:10:45.930Z,7.91
2023-02-11T21:13:28.777Z,7.91
2023-02-11T21:15:59.889Z,7.90
2023-02-11T21:18:39.667Z,7.90
2023-02-11T21:21:19.238Z,7.91
2023-02-11T21:23:55.858Z,7.90
2023-02-11T21:26:45.224Z,7.93
2023-02-11T21:29:20.399Z,7.94
2023-02-11T21:31:53.653Z,7.92
2023-02-11T21:34:29.102Z,7.90
2023-02-11T21:37:06.365Z,7.88
2023-02-11T21:39:37.097Z,7.87
2023-02-11T21:42:08.254Z,7.85
2023-02-11T21:44:37.875Z,7.83
2023-02-11T21:47:06.815Z,7.81
2023-02-11T21:49:50.780Z,7.81
2023-02-11T21:52:29.541Z,7.79
2023-02-11T21:54:58.998Z,7.79
2023-02-11T21:57:29.643Z,7.77
2023-02-11T22:00:07.315Z,7.77
2023-02-11T22:02:50.768Z,7.77
2023-02-11T22:05:36.739Z,7.78
2023-02-11T22:08:06.166Z,7.77
2023-02-11T22:13:49.600Z,7.73
2023-02-11T22:16:19.625Z,7.73
2023-02-11T22:18:50.146Z,7.74
2023-02-11T22:21:30.281Z,7.70
2023-02-11T22:24:00.479Z,7.74
2023-02-11T22:26:32.380Z,7.74
2023-02-11T22:29:00.905Z,7.74
2023-02-11T22:31:36.871Z,7.75
2023-02-11T22:34:06.583Z,7.72
2023-02-11T22:36:53.235Z,7.71
2023-02-11T22:39:29.696Z,7.70
2023-02-11T22:42:07.423Z,7.70
2023-02-11T22:47:27.974Z,7.72
2023-02-11T22:50:04.869Z,7.71
2023-02-11T22:52:38.508Z,7.71
2023-02-11T22:55:16.497Z,7.71
2023-02-11T22:57:45.330Z,7.72
2023-02-11T23:00:14.233Z,7.71
2023-02-11T23:05:33.515Z,7.68
2023-02-11T23:08:12.880Z,7.66
2023-02-11T23:10:56.585Z,7.64
2023-02-11T23:13:39.636Z,7.64
2023-02-11T23:16:17.831Z,7.63
2023-02-11T23:18:49.948Z,7.60
2023-02-11T23:21:39.929Z,7.60
2023-02-11T23:24:14.511Z,7.58
2023-02-11T23:26:46.028Z,7.58
2023-02-11T23:29:15.678Z,7.57
2023-02-11T23:31:51.885Z,7.58
2023-02-11T23:34:25.573Z,7.56
2023-02-11T23:37:12.348Z,7.58
2023-02-11T23:39:39.851Z,7.58
2023-02-11T23:42:09.364Z,7.59
2023-02-11T23:44:40.284Z,7.59
2023-02-11T23:47:07.972Z,7.58
2023-02-11T23:49:36.142Z,7.60
2023-02-11T23:52:11.799Z,7.58
2023-02-11T23:54:48.373Z,7.58
2023-02-11T23:57:18.110Z,7.58
2023-02-11T23:59:49.986Z,7.56
